createdAt,value
2023-05-21T00:00:02.094Z,994.49
2023-05-21T00:00:12.609Z,994.49
2023-05-21T00:00:23.132Z,994.49
2023-05-21T00:00:33.654Z,994.49
2023-05-21T00:00:44.167Z,994.49
2023-05-21T00:00:54.684Z,994.48
2023-05-21T00:01:05.203Z,994.48
2023-05-21T00:01:15.712Z,994.48
2023-05-21T00:01:26.215Z,994.48
2023-05-21T00:01:36.732Z,994.48
2023-05-21T00:01:47.449Z,994.48
2023-05-21T00:01:57.782Z,994.48
2023-05-21T00:02:08.275Z,994.47
2023-05-21T00:02:18.921Z,994.47
2023-05-21T00:02:29.476Z,994.47
2023-05-21T00:02:39.912Z,994.46
2023-05-21T00:02:50.381Z,994.46
2023-05-21T00:03:00.909Z,994.47
2023-05-21T00:03:11.494Z,994.46
2023-05-21T00:03:22.009Z,994.47
2023-05-21T00:03:32.484Z,994.47
2023-05-21T00:03:43.097Z,994.48
2023-05-21T00:03:53.675Z,994.48
2023-05-21T00:04:04.054Z,994.48
2023-05-21T00:04:14.479Z,994.48
2023-05-21T00:04:25.007Z,994.48
2023-05-21T00:04:35.508Z,994.48
2023-05-21T00:04:46.058Z,994.48
2023-05-21T00:04:56.533Z,994.48
2023-05-21T00:05:07.061Z,994.47
2023-05-21T00:05:17.578Z,994.47
2023-05-21T00:05:28.086Z,994.47
2023-05-21T00:05:38.863Z,994.47
2023-05-21T00:05:49.138Z,994.47
2023-05-21T00:05:59.675Z,994.47
2023-05-21T00:06:10.170Z,994.47
2023-05-21T00:06:20.692Z,994.47
2023-05-21T00:06:31.204Z,994.47
2023-05-21T00:06:41.698Z,994.46
2023-05-21T00:06:52.249Z,994.45
2023-05-21T00:07:02.770Z,994.45
2023-05-21T00:07:13.240Z,994.45
2023-05-21T00:07:23.757Z,994.45
2023-05-21T00:07:34.271Z,994.45
2023-05-21T00:07:44.789Z,994.46
2023-05-21T00:07:55.321Z,994.46
2023-05-21T00:08:05.816Z,994.46
2023-05-21T00:08:16.339Z,994.46
2023-05-21T00:08:26.878Z,994.45
2023-05-21T00:08:37.369Z,994.45
2023-05-21T00:08:47.886Z,994.45
2023-05-21T00:08:58.403Z,994.44
2023-05-21T00:09:08.913Z,994.44
2023-05-21T00:09:19.480Z,994.44
2023-05-21T00:09:29.942Z,994.44
2023-05-21T00:09:40.463Z,994.44
2023-05-21T00:09:50.974Z,994.44
2023-05-21T00:10:01.495Z,994.44
2023-05-21T00:10:12.011Z,994.44
2023-05-21T00:10:22.578Z,994.44
2023-05-21T00:10:33.038Z,994.44
2023-05-21T00:10:43.556Z,994.44
2023-05-21T00:10:54.080Z,994.44
2023-05-21T00:11:04.601Z,994.43
2023-05-21T00:11:15.104Z,994.43
2023-05-21T00:11:25.617Z,994.43
2023-05-21T00:11:36.150Z,994.43
2023-05-21T00:11:46.670Z,994.43
2023-05-21T00:11:57.170Z,994.43
2023-05-21T00:12:07.696Z,994.42
2023-05-21T00:12:18.209Z,994.42
2023-05-21T00:12:28.718Z,994.42
2023-05-21T00:12:39.258Z,994.42
2023-05-21T00:12:49.807Z,994.41
2023-05-21T00:13:00.272Z,994.41
2023-05-21T00:13:10.806Z,994.41
2023-05-21T00:13:21.297Z,994.40
2023-05-21T00:13:31.828Z,994.40
2023-05-21T00:13:42.328Z,994.40
2023-05-21T00:13:52.844Z,994.40
2023-05-21T00:14:03.365Z,994.39
2023-05-21T00:14:13.897Z,994.39
2023-05-21T00:14:24.412Z,994.38
2023-05-21T00:14:34.906Z,994.38
2023-05-21T00:14:45.443Z,994.38
2023-05-21T00:14:55.943Z,994.37
2023-05-21T00:15:06.459Z,994.37
2023-05-21T00:15:17.003Z,994.37
2023-05-21T00:15:27.487Z,994.38
2023-05-21T00:15:38.110Z,994.38
2023-05-21T00:15:48.517Z,994.38
2023-05-21T00:15:59.096Z,994.38
2023-05-21T00:16:09.555Z,994.37
2023-05-21T00:16:20.104Z,994.37
2023-05-21T00:16:30.610Z,994.36
2023-05-21T00:16:41.144Z,994.36
2023-05-21T00:16:51.642Z,994.36
2023-05-21T00:17:02.154Z,994.36
2023-05-21T00:17:12.650Z,994.36
2023-05-21T00:17:23.188Z,994.35
2023-05-21T00:17:33.696Z,994.35
2023-05-21T00:17:44.216Z,994.36
2023-05-21T00:17:54.737Z,994.35
2023-05-21T00:18:05.306Z,994.35
2023-05-21T00:18:15.744Z,994.35
2023-05-21T00:18:26.308Z,994.35
2023-05-21T00:18:36.772Z,994.35
2023-05-21T00:18:47.319Z,994.35
2023-05-21T00:18:57.813Z,994.34
2023-05-21T00:19:08.392Z,994.34
2023-05-21T00:19:18.905Z,994.34
2023-05-21T00:19:29.393Z,994.33
2023-05-21T00:19:39.887Z,994.33
2023-05-21T00:19:50.423Z,994.33
2023-05-21T00:20:00.906Z,994.32
2023-05-21T00:20:11.420Z,994.31
2023-05-21T00:20:21.958Z,994.31
2023-05-21T00:20:32.652Z,994.30
2023-05-21T00:20:42.986Z,994.30
2023-05-21T00:20:53.486Z,994.29
2023-05-21T00:21:04.003Z,994.29
2023-05-21T00:21:14.517Z,994.29
2023-05-21T00:21:25.043Z,994.29
2023-05-21T00:21:35.556Z,994.28
2023-05-21T00:21:46.063Z,994.29
2023-05-21T00:21:56.591Z,994.28
2023-05-21T00:22:07.098Z,994.28
2023-05-21T00:22:17.605Z,994.28
2023-05-21T00:22:28.121Z,994.27
2023-05-21T00:22:38.647Z,994.27
2023-05-21T00:22:49.179Z,994.27
2023-05-21T00:22:59.682Z,994.26
2023-05-21T00:23:10.197Z,994.26
2023-05-21T00:23:20.717Z,994.26
2023-05-21T00:23:31.226Z,994.25
2023-05-21T00:23:41.734Z,994.25
2023-05-21T00:23:52.249Z,994.25
2023-05-21T00:24:02.770Z,994.24
2023-05-21T00:24:13.278Z,994.24
2023-05-21T00:24:23.800Z,994.24
2023-05-21T00:24:34.310Z,994.24
2023-05-21T00:24:44.901Z,994.23
2023-05-21T00:24:55.372Z,994.22
2023-05-21T00:25:05.863Z,994.22
2023-05-21T00:25:16.378Z,994.21
2023-05-21T00:25:26.904Z,994.21
2023-05-21T00:25:37.597Z,994.20
2023-05-21T00:25:47.944Z,994.20
2023-05-21T00:25:58.445Z,994.19
2023-05-21T00:26:08.968Z,994.19
2023-05-21T00:26:19.481Z,994.18
2023-05-21T00:26:30.010Z,994.18
2023-05-21T00:26:40.512Z,994.18
2023-05-21T00:26:51.031Z,994.19
2023-05-21T00:27:01.544Z,994.18
2023-05-21T00:27:12.073Z,994.18
2023-05-21T00:27:22.580Z,994.18
2023-05-21T00:27:33.100Z,994.17
2023-05-21T00:27:43.617Z,994.18
2023-05-21T00:27:54.130Z,994.18
2023-05-21T00:28:04.676Z,994.17
2023-05-21T00:28:15.171Z,994.17
2023-05-21T00:28:25.686Z,994.17
2023-05-21T00:28:36.201Z,994.17
2023-05-21T00:28:46.734Z,994.17
2023-05-21T00:28:57.232Z,994.17
2023-05-21T00:29:07.754Z,994.17
2023-05-21T00:29:18.281Z,994.17
2023-05-21T00:29:28.784Z,994.17
2023-05-21T00:29:39.291Z,994.17
2023-05-21T00:29:49.807Z,994.17
2023-05-21T00:30:00.331Z,994.17
2023-05-21T00:30:10.858Z,994.17
2023-05-21T00:30:21.378Z,994.18
2023-05-21T00:30:31.897Z,994.18
2023-05-21T00:30:42.412Z,994.18
2023-05-21T00:30:52.894Z,994.18
2023-05-21T00:31:03.412Z,994.18
2023-05-21T00:31:13.961Z,994.18
2023-05-21T00:31:24.577Z,994.18
2023-05-21T00:31:35.012Z,994.18
2023-05-21T00:31:45.583Z,994.18
2023-05-21T00:31:56.102Z,994.19
2023-05-21T00:32:06.547Z,994.19
2023-05-21T00:32:17.022Z,994.18
2023-05-21T00:32:27.567Z,994.18
2023-05-21T00:32:38.105Z,994.18
2023-05-21T00:32:48.602Z,994.18
2023-05-21T00:32:59.226Z,994.17
2023-05-21T00:33:09.621Z,994.17
2023-05-21T00:33:20.121Z,994.17
2023-05-21T00:33:30.633Z,994.17
2023-05-21T00:33:41.162Z,994.16
2023-05-21T00:33:51.665Z,994.16
2023-05-21T00:34:02.240Z,994.16
2023-05-21T00:34:12.707Z,994.16
2023-05-21T00:34:23.228Z,994.16
2023-05-21T00:34:33.734Z,994.15
2023-05-21T00:34:44.259Z,994.15
2023-05-21T00:34:54.790Z,994.14
2023-05-21T00:35:05.296Z,994.13
2023-05-21T00:35:15.828Z,994.13
2023-05-21T00:35:26.314Z,994.12
2023-05-21T00:35:37.069Z,994.12
2023-05-21T00:35:47.370Z,994.12
2023-05-21T00:35:57.874Z,994.12
2023-05-21T00:36:08.388Z,994.12
2023-05-21T00:36:18.908Z,994.12
2023-05-21T00:36:29.446Z,994.12
2023-05-21T00:36:39.930Z,994.12
2023-05-21T00:36:50.453Z,994.12
2023-05-21T00:37:00.961Z,994.12
2023-05-21T00:37:11.526Z,994.12
2023-05-21T00:37:22.020Z,994.12
2023-05-21T00:37:32.508Z,994.11
2023-05-21T00:37:43.056Z,994.11
2023-05-21T00:37:53.534Z,994.11
2023-05-21T00:38:04.053Z,994.11
2023-05-21T00:38:14.568Z,994.11
2023-05-21T00:38:25.086Z,994.11
2023-05-21T00:38:35.596Z,994.11
2023-05-21T00:38:46.267Z,994.11
2023-05-21T00:38:56.637Z,994.10
2023-05-21T00:39:07.144Z,994.10
2023-05-21T00:39:17.652Z,994.10
2023-05-21T00:39:28.170Z,994.09
2023-05-21T00:39:38.685Z,994.09
2023-05-21T00:39:49.226Z,994.09
2023-05-21T00:39:59.718Z,994.09
2023-05-21T00:40:10.227Z,994.08
2023-05-21T00:40:20.741Z,994.08
2023-05-21T00:40:31.257Z,994.08
2023-05-21T00:40:41.777Z,994.08
2023-05-21T00:40:52.309Z,994.07
2023-05-21T00:41:02.823Z,994.08
2023-05-21T00:41:13.328Z,994.07
2023-05-21T00:41:23.838Z,994.07
2023-05-21T00:41:34.360Z,994.08
2023-05-21T00:41:44.877Z,994.08
2023-05-21T00:41:55.388Z,994.07
2023-05-21T00:42:05.908Z,994.07
2023-05-21T00:42:16.443Z,994.07
2023-05-21T00:42:26.941Z,994.07
2023-05-21T00:42:37.455Z,994.07
2023-05-21T00:42:47.972Z,994.06
2023-05-21T00:42:58.477Z,994.06
2023-05-21T00:43:08.992Z,994.06
2023-05-21T00:43:19.513Z,994.05
2023-05-21T00:43:30.026Z,994.05
2023-05-21T00:43:40.544Z,994.05
2023-05-21T00:43:51.051Z,994.04
2023-05-21T00:44:01.572Z,994.04
2023-05-21T00:44:12.097Z,994.04
2023-05-21T00:44:22.595Z,994.03
2023-05-21T00:44:33.112Z,994.03
2023-05-21T00:44:43.628Z,994.02
2023-05-21T00:44:54.153Z,994.02
2023-05-21T00:45:04.666Z,994.02
2023-05-21T00:45:15.191Z,994.02
2023-05-21T00:45:25.750Z,994.02
2023-05-21T00:45:36.427Z,994.01
2023-05-21T00:45:46.938Z,994.01
2023-05-21T00:45:57.271Z,994.01
2023-05-21T00:46:07.831Z,994.02
2023-05-21T00:46:18.363Z,994.02
2023-05-21T00:46:28.813Z,994.02
2023-05-21T00:46:39.311Z,994.02
2023-05-21T00:46:49.861Z,994.02
2023-05-21T00:47:00.348Z,994.01
2023-05-21T00:47:10.871Z,994.01
2023-05-21T00:47:21.421Z,994.01
2023-05-21T00:47:31.915Z,994.01
2023-05-21T00:47:42.437Z,994.00
2023-05-21T00:47:52.975Z,994.00
2023-05-21T00:48:03.521Z,994.00
2023-05-21T00:48:13.950Z,994.00
2023-05-21T00:48:24.473Z,994.00
2023-05-21T00:48:34.990Z,994.00
2023-05-21T00:48:45.501Z,994.00
2023-05-21T00:48:56.027Z,993.99
2023-05-21T00:49:06.527Z,994.00
2023-05-21T00:49:17.071Z,994.00
2023-05-21T00:49:27.551Z,994.00
2023-05-21T00:49:38.065Z,994.00
2023-05-21T00:49:48.589Z,994.00
2023-05-21T00:49:59.132Z,993.99
2023-05-21T00:50:09.651Z,993.99
2023-05-21T00:50:20.128Z,993.99
2023-05-21T00:50:30.656Z,993.99
2023-05-21T00:50:41.165Z,993.98
2023-05-21T00:50:51.683Z,993.98
2023-05-21T00:51:02.194Z,993.97
2023-05-21T00:51:12.721Z,993.97
2023-05-21T00:51:23.225Z,993.97
2023-05-21T00:51:33.741Z,993.96
2023-05-21T00:51:44.256Z,993.96
2023-05-21T00:51:54.781Z,993.96
2023-05-21T00:52:05.280Z,993.96
2023-05-21T00:52:15.807Z,993.96
2023-05-21T00:52:26.309Z,993.96
2023-05-21T00:52:36.827Z,993.96
2023-05-21T00:52:47.341Z,993.95
2023-05-21T00:52:57.863Z,993.95
2023-05-21T00:53:08.376Z,993.94
2023-05-21T00:53:18.887Z,993.94
2023-05-21T00:53:29.404Z,993.94
2023-05-21T00:53:39.920Z,993.94
2023-05-21T00:53:50.444Z,993.93
2023-05-21T00:54:00.950Z,993.94
2023-05-21T00:54:11.464Z,993.93
2023-05-21T00:54:22.105Z,993.93
2023-05-21T00:54:32.482Z,993.93
2023-05-21T00:54:43.001Z,993.93
2023-05-21T00:54:53.516Z,993.93
2023-05-21T00:55:04.048Z,993.93
2023-05-21T00:55:14.549Z,993.93
2023-05-21T00:55:25.060Z,993.93
2023-05-21T00:55:35.765Z,993.93
2023-05-21T00:55:46.085Z,993.93
2023-05-21T00:55:56.601Z,993.93
2023-05-21T00:56:07.143Z,993.93
2023-05-21T00:56:17.655Z,993.93
2023-05-21T00:56:28.147Z,993.93
2023-05-21T00:56:38.675Z,993.93
2023-05-21T00:56:49.186Z,993.92
2023-05-21T00:56:59.765Z,993.92
2023-05-21T00:57:10.203Z,993.92
2023-05-21T00:57:20.731Z,993.92
2023-05-21T00:57:31.242Z,993.92
2023-05-21T00:57:41.751Z,993.92
2023-05-21T00:57:52.271Z,993.92
2023-05-21T00:58:02.814Z,993.92
2023-05-21T00:58:13.304Z,993.91
2023-05-21T00:58:23.836Z,993.91
2023-05-21T00:58:34.333Z,993.91
2023-05-21T00:58:44.842Z,993.91
2023-05-21T00:58:55.368Z,993.91
2023-05-21T00:59:05.908Z,993.90
2023-05-21T00:59:16.389Z,993.91
2023-05-21T00:59:26.919Z,993.91
2023-05-21T00:59:37.416Z,993.91
2023-05-21T00:59:47.946Z,993.91
2023-05-21T00:59:58.448Z,993.91
2023-05-21T01:00:09.147Z,993.92
2023-05-21T01:00:19.479Z,993.92
2023-05-21T01:00:30.001Z,993.92
2023-05-21T01:00:40.505Z,993.92
2023-05-21T01:00:51.072Z,993.91
2023-05-21T01:01:01.591Z,993.91
2023-05-21T01:01:12.073Z,993.91
2023-05-21T01:01:22.602Z,993.91
2023-05-21T01:01:33.113Z,993.91
2023-05-21T01:01:43.735Z,993.91
2023-05-21T01:01:54.104Z,993.91
2023-05-21T01:02:04.650Z,993.90
2023-05-21T01:02:15.179Z,993.90
2023-05-21T01:02:25.793Z,993.90
2023-05-21T01:02:36.295Z,993.90
2023-05-21T01:02:46.791Z,993.90
2023-05-21T01:02:57.258Z,993.90
2023-05-21T01:03:07.844Z,993.90
2023-05-21T01:03:18.300Z,993.89
2023-05-21T01:03:28.805Z,993.89
2023-05-21T01:03:39.274Z,993.90
2023-05-21T01:03:49.769Z,993.90
2023-05-21T01:04:00.276Z,993.90
2023-05-21T01:04:10.789Z,993.89
2023-05-21T01:04:21.309Z,993.89
2023-05-21T01:04:31.828Z,993.89
2023-05-21T01:04:42.339Z,993.89
2023-05-21T01:04:52.850Z,993.90
2023-05-21T01:05:03.397Z,993.90
2023-05-21T01:05:13.885Z,993.90
2023-05-21T01:05:24.407Z,993.90
2023-05-21T01:05:35.127Z,993.90
2023-05-21T01:05:45.426Z,993.90
2023-05-21T01:05:55.938Z,993.89
2023-05-21T01:06:06.479Z,993.89
2023-05-21T01:06:16.990Z,993.89
2023-05-21T01:06:27.489Z,993.88
2023-05-21T01:06:37.997Z,993.88
2023-05-21T01:06:48.508Z,993.88
2023-05-21T01:06:59.036Z,993.88
2023-05-21T01:07:09.554Z,993.88
2023-05-21T01:07:20.055Z,993.88
2023-05-21T01:07:30.571Z,993.87
2023-05-21T01:07:41.131Z,993.87
2023-05-21T01:07:51.609Z,993.87
2023-05-21T01:08:02.132Z,993.87
2023-05-21T01:08:12.633Z,993.87
2023-05-21T01:08:23.162Z,993.87
2023-05-21T01:08:33.674Z,993.87
2023-05-21T01:08:44.180Z,993.87
2023-05-21T01:08:54.705Z,993.87
2023-05-21T01:09:05.608Z,993.87
2023-05-21T01:09:15.823Z,993.87
2023-05-21T01:09:26.248Z,993.87
2023-05-21T01:09:36.775Z,993.87
2023-05-21T01:09:47.284Z,993.88
2023-05-21T01:09:57.821Z,993.88
2023-05-21T01:10:08.328Z,993.88
2023-05-21T01:10:19.098Z,993.88
2023-05-21T01:10:29.337Z,993.88
2023-05-21T01:10:39.855Z,993.89
2023-05-21T01:10:50.384Z,993.89
2023-05-21T01:11:00.891Z,993.89
2023-05-21T01:11:11.402Z,993.89
2023-05-21T01:11:21.913Z,993.89
2023-05-21T01:11:32.439Z,993.89
2023-05-21T01:11:42.971Z,993.89
2023-05-21T01:11:53.487Z,993.89
2023-05-21T01:12:03.972Z,993.89
2023-05-21T01:12:14.492Z,993.90
2023-05-21T01:12:25.007Z,993.89
2023-05-21T01:12:35.542Z,993.89
2023-05-21T01:12:46.039Z,993.89
2023-05-21T01:12:56.555Z,993.89
2023-05-21T01:13:07.072Z,993.90
2023-05-21T01:13:17.586Z,993.90
2023-05-21T01:13:28.111Z,993.90
2023-05-21T01:13:38.660Z,993.89
2023-05-21T01:13:49.130Z,993.90
2023-05-21T01:13:59.653Z,993.90
2023-05-21T01:14:10.238Z,993.90
2023-05-21T01:14:20.687Z,993.90
2023-05-21T01:14:31.198Z,993.90
2023-05-21T01:14:41.712Z,993.90
2023-05-21T01:14:52.231Z,993.90
2023-05-21T01:15:02.763Z,993.90
2023-05-21T01:15:13.281Z,993.90
2023-05-21T01:15:23.775Z,993.89
2023-05-21T01:15:34.641Z,993.89
2023-05-21T01:15:44.806Z,993.90
2023-05-21T01:15:55.313Z,993.90
2023-05-21T01:16:05.837Z,993.90
2023-05-21T01:16:16.353Z,993.89
2023-05-21T01:16:26.888Z,993.89
2023-05-21T01:16:37.423Z,993.89
2023-05-21T01:16:47.918Z,993.89
2023-05-21T01:16:58.444Z,993.89
2023-05-21T01:17:08.954Z,993.88
2023-05-21T01:17:19.469Z,993.88
2023-05-21T01:17:30.194Z,993.89
2023-05-21T01:17:40.472Z,993.88
2023-05-21T01:17:51.014Z,993.88
2023-05-21T01:18:01.567Z,993.88
2023-05-21T01:18:12.065Z,993.88
2023-05-21T01:18:22.557Z,993.88
2023-05-21T01:18:33.077Z,993.87
2023-05-21T01:18:43.789Z,993.87
2023-05-21T01:18:54.198Z,993.87
2023-05-21T01:19:04.661Z,993.87
2023-05-21T01:19:15.178Z,993.87
2023-05-21T01:19:25.661Z,993.87
2023-05-21T01:19:36.198Z,993.87
2023-05-21T01:19:46.787Z,993.87
2023-05-21T01:19:57.156Z,993.86
2023-05-21T01:20:09.303Z,993.86
2023-05-21T01:20:18.250Z,993.86
2023-05-21T01:20:28.693Z,993.86
2023-05-21T01:20:39.209Z,993.85
2023-05-21T01:20:49.732Z,993.85
2023-05-21T01:21:00.242Z,993.85
2023-05-21T01:21:10.753Z,993.85
2023-05-21T01:21:21.259Z,993.85
2023-05-21T01:21:31.771Z,993.85
2023-05-21T01:21:42.291Z,993.85
2023-05-21T01:21:52.922Z,993.85
2023-05-21T01:22:03.322Z,993.85
2023-05-21T01:22:13.832Z,993.85
2023-05-21T01:22:24.362Z,993.85
2023-05-21T01:22:34.861Z,993.84
2023-05-21T01:22:45.381Z,993.84
2023-05-21T01:22:55.955Z,993.84
2023-05-21T01:23:06.404Z,993.83
2023-05-21T01:23:16.935Z,993.83
2023-05-21T01:23:27.448Z,993.83
2023-05-21T01:23:37.949Z,993.83
2023-05-21T01:23:48.472Z,993.83
2023-05-21T01:23:58.995Z,993.83
2023-05-21T01:24:09.516Z,993.83
2023-05-21T01:24:20.025Z,993.82
2023-05-21T01:24:30.537Z,993.82
2023-05-21T01:24:41.041Z,993.82
2023-05-21T01:24:51.548Z,993.81
2023-05-21T01:25:02.058Z,993.81
2023-05-21T01:25:12.571Z,993.81
2023-05-21T01:25:23.122Z,993.81
2023-05-21T01:25:33.761Z,993.81
2023-05-21T01:25:44.122Z,993.81
2023-05-21T01:25:54.623Z,993.81
2023-05-21T01:26:05.148Z,993.81
2023-05-21T01:26:15.656Z,993.81
2023-05-21T01:26:26.192Z,993.81
2023-05-21T01:26:36.682Z,993.82
2023-05-21T01:26:47.202Z,993.82
2023-05-21T01:26:57.710Z,993.82
2023-05-21T01:27:08.220Z,993.83
2023-05-21T01:27:18.742Z,993.83
2023-05-21T01:27:29.262Z,993.83
2023-05-21T01:27:39.766Z,993.83
2023-05-21T01:27:50.282Z,993.83
2023-05-21T01:28:00.788Z,993.83
2023-05-21T01:28:11.311Z,993.83
2023-05-21T01:28:21.820Z,993.84
2023-05-21T01:28:32.332Z,993.83
2023-05-21T01:28:42.885Z,993.83
2023-05-21T01:28:53.384Z,993.83
2023-05-21T01:29:03.898Z,993.82
2023-05-21T01:29:14.523Z,993.82
2023-05-21T01:29:24.917Z,993.82
2023-05-21T01:29:35.447Z,993.81
2023-05-21T01:29:45.940Z,993.81
2023-05-21T01:29:56.447Z,993.80
2023-05-21T01:30:06.962Z,993.80
2023-05-21T01:30:17.473Z,993.80
2023-05-21T01:30:27.993Z,993.80
2023-05-21T01:30:38.507Z,993.79
2023-05-21T01:30:49.034Z,993.79
2023-05-21T01:30:59.538Z,993.79
2023-05-21T01:31:10.050Z,993.78
2023-05-21T01:31:20.573Z,993.78
2023-05-21T01:31:31.078Z,993.78
2023-05-21T01:31:41.595Z,993.77
2023-05-21T01:31:52.106Z,993.77
2023-05-21T01:32:02.629Z,993.76
2023-05-21T01:32:13.280Z,993.76
2023-05-21T01:32:23.718Z,993.76
2023-05-21T01:32:34.248Z,993.76
2023-05-21T01:32:44.810Z,993.76
2023-05-21T01:32:55.317Z,993.76
2023-05-21T01:33:05.918Z,993.75
2023-05-21T01:33:16.318Z,993.76
2023-05-21T01:33:26.811Z,993.76
2023-05-21T01:33:37.355Z,993.76
2023-05-21T01:33:47.866Z,993.76
2023-05-21T01:33:58.334Z,993.76
2023-05-21T01:34:08.834Z,993.77
2023-05-21T01:34:19.313Z,993.77
2023-05-21T01:34:29.819Z,993.77
2023-05-21T01:34:40.329Z,993.77
2023-05-21T01:34:50.875Z,993.77
2023-05-21T01:35:01.373Z,993.78
2023-05-21T01:35:11.902Z,993.78
2023-05-21T01:35:22.391Z,993.78
2023-05-21T01:35:32.927Z,993.78
2023-05-21T01:35:43.402Z,993.78
2023-05-21T01:35:53.925Z,993.78
2023-05-21T01:36:04.437Z,993.78
2023-05-21T01:36:14.953Z,993.78
2023-05-21T01:36:25.462Z,993.78
2023-05-21T01:36:35.997Z,993.78
2023-05-21T01:36:46.493Z,993.78
2023-05-21T01:36:57.012Z,993.78
2023-05-21T01:37:07.520Z,993.78
2023-05-21T01:37:18.045Z,993.78
2023-05-21T01:37:28.555Z,993.78
2023-05-21T01:37:39.081Z,993.78
2023-05-21T01:37:49.587Z,993.78
2023-05-21T01:38:00.138Z,993.78
2023-05-21T01:38:10.616Z,993.78
2023-05-21T01:38:21.128Z,993.78
2023-05-21T01:38:31.656Z,993.78
2023-05-21T01:38:42.159Z,993.79
2023-05-21T01:38:52.664Z,993.78
2023-05-21T01:39:03.184Z,993.79
2023-05-21T01:39:13.708Z,993.79
2023-05-21T01:39:24.222Z,993.79
2023-05-21T01:39:34.730Z,993.79
2023-05-21T01:39:45.242Z,993.79
2023-05-21T01:39:55.780Z,993.79
2023-05-21T01:40:06.266Z,993.79
2023-05-21T01:40:16.791Z,993.79
2023-05-21T01:40:27.296Z,993.79
2023-05-21T01:40:37.810Z,993.79
2023-05-21T01:40:48.321Z,993.79
2023-05-21T01:40:58.882Z,993.78
2023-05-21T01:41:09.370Z,993.78
2023-05-21T01:41:19.878Z,993.78
2023-05-21T01:41:30.447Z,993.78
2023-05-21T01:41:40.914Z,993.77
2023-05-21T01:41:51.418Z,993.77
2023-05-21T01:42:01.922Z,993.77
2023-05-21T01:42:12.458Z,993.77
2023-05-21T01:42:22.968Z,993.77
2023-05-21T01:42:33.473Z,993.76
2023-05-21T01:42:43.976Z,993.75
2023-05-21T01:42:54.528Z,993.75
2023-05-21T01:43:05.013Z,993.75
2023-05-21T01:43:15.530Z,993.74
2023-05-21T01:43:26.041Z,993.74
2023-05-21T01:43:36.554Z,993.73
2023-05-21T01:43:47.071Z,993.73
2023-05-21T01:43:57.596Z,993.73
2023-05-21T01:44:08.120Z,993.73
2023-05-21T01:44:18.618Z,993.73
2023-05-21T01:44:29.125Z,993.73
2023-05-21T01:44:39.643Z,993.73
2023-05-21T01:44:50.153Z,993.73
2023-05-21T01:45:00.688Z,993.73
2023-05-21T01:45:11.210Z,993.73
2023-05-21T01:45:21.696Z,993.73
2023-05-21T01:45:32.211Z,993.72
2023-05-21T01:45:42.742Z,993.73
2023-05-21T01:45:53.256Z,993.73
2023-05-21T01:46:03.792Z,993.73
2023-05-21T01:46:14.302Z,993.73
2023-05-21T01:46:24.804Z,993.73
2023-05-21T01:46:35.367Z,993.73
2023-05-21T01:46:45.873Z,993.72
2023-05-21T01:46:56.341Z,993.72
2023-05-21T01:47:06.914Z,993.72
2023-05-21T01:47:17.387Z,993.72
2023-05-21T01:47:27.905Z,993.73
2023-05-21T01:47:38.479Z,993.73
2023-05-21T01:47:49.040Z,993.72
2023-05-21T01:47:59.486Z,993.72
2023-05-21T01:48:09.953Z,993.73
2023-05-21T01:48:20.462Z,993.73
2023-05-21T01:48:30.976Z,993.73
2023-05-21T01:48:41.489Z,993.73
2023-05-21T01:48:52.009Z,993.73
2023-05-21T01:49:02.523Z,993.73
2023-05-21T01:49:13.028Z,993.73
2023-05-21T01:49:23.556Z,993.74
2023-05-21T01:49:34.059Z,993.74
2023-05-21T01:49:44.566Z,993.73
2023-05-21T01:49:55.085Z,993.73
2023-05-21T01:50:05.614Z,993.73
2023-05-21T01:50:16.191Z,993.73
2023-05-21T01:50:26.634Z,993.73
2023-05-21T01:50:37.152Z,993.73
2023-05-21T01:50:47.663Z,993.73
2023-05-21T01:50:58.182Z,993.73
2023-05-21T01:51:08.688Z,993.73
2023-05-21T01:51:19.217Z,993.73
2023-05-21T01:51:29.717Z,993.73
2023-05-21T01:51:40.236Z,993.72
2023-05-21T01:51:50.747Z,993.73
2023-05-21T01:52:01.440Z,993.73
2023-05-21T01:52:11.778Z,993.72
2023-05-21T01:52:22.301Z,993.73
2023-05-21T01:52:32.809Z,993.72
2023-05-21T01:52:43.334Z,993.72
2023-05-21T01:52:53.874Z,993.72
2023-05-21T01:53:04.353Z,993.72
2023-05-21T01:53:14.870Z,993.72
2023-05-21T01:53:25.380Z,993.72
2023-05-21T01:53:35.899Z,993.72
2023-05-21T01:53:46.409Z,993.72
2023-05-21T01:53:56.914Z,993.72
2023-05-21T01:54:07.429Z,993.72
2023-05-21T01:54:17.961Z,993.71
2023-05-21T01:54:28.468Z,993.72
2023-05-21T01:54:38.970Z,993.72
2023-05-21T01:54:49.490Z,993.71
2023-05-21T01:54:59.999Z,993.71
2023-05-21T01:55:10.515Z,993.71
2023-05-21T01:55:21.029Z,993.71
2023-05-21T01:55:31.545Z,993.70
2023-05-21T01:55:42.254Z,993.70
2023-05-21T01:55:52.570Z,993.70
2023-05-21T01:56:03.132Z,993.69
2023-05-21T01:56:13.597Z,993.69
2023-05-21T01:56:24.109Z,993.69
2023-05-21T01:56:34.644Z,993.68
2023-05-21T01:56:45.149Z,993.68
2023-05-21T01:56:55.659Z,993.68
2023-05-21T01:57:06.186Z,993.67
2023-05-21T01:57:16.695Z,993.68
2023-05-21T01:57:27.195Z,993.67
2023-05-21T01:57:37.709Z,993.67
2023-05-21T01:57:48.234Z,993.66
2023-05-21T01:58:01.238Z,993.67
2023-05-21T01:58:09.247Z,993.67
2023-05-21T01:58:19.780Z,993.68
2023-05-21T01:58:30.277Z,993.67
2023-05-21T01:58:40.831Z,993.67
2023-05-21T01:58:51.309Z,993.68
2023-05-21T01:59:01.831Z,993.68
2023-05-21T01:59:12.356Z,993.68
2023-05-21T01:59:22.861Z,993.69
2023-05-21T01:59:33.367Z,993.68
2023-05-21T01:59:43.880Z,993.68
2023-05-21T01:59:54.396Z,993.68
2023-05-21T02:00:04.918Z,993.68
2023-05-21T02:00:15.426Z,993.68
2023-05-21T02:00:25.957Z,993.68
2023-05-21T02:00:36.452Z,993.68
2023-05-21T02:00:46.974Z,993.68
2023-05-21T02:00:57.496Z,993.67
2023-05-21T02:01:08.004Z,993.68
2023-05-21T02:01:18.519Z,993.67
2023-05-21T02:01:29.045Z,993.67
2023-05-21T02:01:39.586Z,993.67
2023-05-21T02:01:50.123Z,993.67
2023-05-21T02:02:00.601Z,993.66
2023-05-21T02:02:11.380Z,993.66
2023-05-21T02:02:21.625Z,993.66
2023-05-21T02:02:32.164Z,993.66
2023-05-21T02:02:42.662Z,993.66
2023-05-21T02:02:53.268Z,993.66
2023-05-21T02:03:03.799Z,993.66
2023-05-21T02:03:14.285Z,993.65
2023-05-21T02:03:24.913Z,993.65
2023-05-21T02:03:35.269Z,993.65
2023-05-21T02:03:45.785Z,993.65
2023-05-21T02:03:56.303Z,993.64
2023-05-21T02:04:07.023Z,993.65
2023-05-21T02:04:17.268Z,993.65
2023-05-21T02:04:27.778Z,993.65
2023-05-21T02:04:38.292Z,993.65
2023-05-21T02:04:48.811Z,993.65
2023-05-21T02:04:59.320Z,993.65
2023-05-21T02:05:09.853Z,993.65
2023-05-21T02:05:20.384Z,993.65
2023-05-21T02:05:30.866Z,993.65
2023-05-21T02:05:41.406Z,993.65
2023-05-21T02:05:51.940Z,993.66
2023-05-21T02:06:02.411Z,993.65
2023-05-21T02:06:12.927Z,993.65
2023-05-21T02:06:23.452Z,993.66
2023-05-21T02:06:33.990Z,993.66
2023-05-21T02:06:44.476Z,993.66
2023-05-21T02:06:54.990Z,993.66
2023-05-21T02:07:05.499Z,993.66
2023-05-21T02:07:16.012Z,993.66
2023-05-21T02:07:26.532Z,993.66
2023-05-21T02:07:37.053Z,993.67
2023-05-21T02:07:47.588Z,993.67
2023-05-21T02:07:58.068Z,993.67
2023-05-21T02:08:08.590Z,993.67
2023-05-21T02:08:19.093Z,993.67
2023-05-21T02:08:29.618Z,993.68
2023-05-21T02:08:40.124Z,993.68
2023-05-21T02:08:50.638Z,993.68
2023-05-21T02:09:01.151Z,993.68
2023-05-21T02:09:11.668Z,993.68
2023-05-21T02:09:22.184Z,993.68
2023-05-21T02:09:32.704Z,993.68
2023-05-21T02:09:43.234Z,993.68
2023-05-21T02:09:53.746Z,993.69
2023-05-21T02:10:04.251Z,993.69
2023-05-21T02:10:14.767Z,993.69
2023-05-21T02:10:25.276Z,993.69
2023-05-21T02:10:35.791Z,993.69
2023-05-21T02:10:46.309Z,993.69
2023-05-21T02:10:56.812Z,993.69
2023-05-21T02:11:07.334Z,993.69